Time;durP1;ratioP1;P1;durP2;ratioP2;P2;SDS_P1;SDS_P2;PMS_P1;PMS_P2;Temp;Humidity;BMP_temperature;BMP_pressure;BME280_temperature;BME280_humidity;BME280_pressure;Samples;Min_cycle;Max_cycle;Signal;HPM_P1;HPM_P2
2022/01/09 00:00:43;;;;;;;1.42;0.55;;;;;;;7.03;59.04;98512.84;5045736;28;20037;-79
2022/01/09 00:03:09;;;;;;;0.73;0.40;;;;;;;7.17;59.56;98501.09;5050854;28;20552;-79
2022/01/09 00:05:35;;;;;;;0.80;0.55;;;;;;;7.06;60.45;98512.72;5041820;28;20037;-79
2022/01/09 00:08:01;;;;;;;0.40;0.38;;;;;;;7.25;59.79;98505.03;5037809;28;20037;-79
2022/01/09 00:10:28;;;;;;;0.40;0.40;;;;;;;7.11;60.73;98508.19;5047394;28;20041;-79
2022/01/09 00:12:54;;;;;;;0.70;0.35;;;;;;;6.95;61.44;98509.75;5045914;28;20047;-79
2022/01/09 00:15:19;;;;;;;0.77;0.40;;;;;;;7.09;59.89;98499.69;5026178;28;20128;-79
2022/01/09 00:17:45;;;;;;;0.52;0.40;;;;;;;7.10;60.74;98503.94;5037133;28;20034;-79
2022/01/09 00:20:11;;;;;;;0.43;0.40;;;;;;;7.22;60.17;98499.16;5038666;28;20040;-79
2022/01/09 00:22:50;;;;;;;0.30;0.30;;;;;;;7.08;60.42;98500.56;5040494;28;20029;-79
2022/01/09 00:25:19;;;;;;;0.70;0.40;;;;;;;7.06;60.98;98488.63;5050710;28;20128;-79
2022/01/09 00:27:45;;;;;;;0.40;0.40;;;;;;;6.93;61.04;98498.66;5038948;28;20040;-79
2022/01/09 00:30:12;;;;;;;0.32;0.20;;;;;;;7.14;62.34;98492.56;5047973;28;20071;-79
2022/01/09 00:32:38;;;;;;;0.47;0.38;;;;;;;7.39;61.30;98486.34;5029175;28;20092;-79
2022/01/09 00:35:06;;;;;;;0.38;0.30;;;;;;;7.10;62.87;98493.63;5052470;28;20524;-78
2022/01/09 00:37:31;;;;;;;0.40;0.40;;;;;;;6.51;63.74;98497.88;5040717;28;20047;-79
2022/01/09 00:39:57;;;;;;;0.90;0.40;;;;;;;7.05;63.23;98492.13;5051243;28;20037;-79
2022/01/09 00:42:22;;;;;;;0.95;0.50;;;;;;;7.02;63.09;98482.78;5043095;28;20120;-79
2022/01/09 00:44:48;;;;;;;0.75;0.35;;;;;;;7.00;62.82;98481.16;5039575;28;20565;-79
2022/01/09 00:47:13;;;;;;;0.30;0.30;;;;;;;6.76;63.24;98485.63;5047794;28;20405;-79
2022/01/09 00:49:39;;;;;;;0.30;0.30;;;;;;;6.99;63.41;98472.56;5052042;28;20041;-79
2022/01/09 00:52:04;;;;;;;0.93;0.50;;;;;;;7.23;61.73;98481.00;5034011;28;20029;-79
2022/01/09 00:54:30;;;;;;;1.38;0.40;;;;;;;7.00;62.22;98476.00;5055142;28;20497;-79
2022/01/09 00:56:56;;;;;;;0.68;0.50;;;;;;;7.09;62.09;98480.78;5038105;28;20079;-79
2022/01/09 00:59:22;;;;;;;0.50;0.30;;;;;;;7.03;63.02;98478.44;5051078;28;20041;-79
2022/01/09 01:01:48;;;;;;;0.30;0.30;;;;;;;6.93;63.81;98487.50;5049309;28;20485;-79
2022/01/09 01:04:13;;;;;;;0.40;0.40;;;;;;;6.99;63.75;98474.31;5051318;28;20106;-79
2022/01/09 01:06:39;;;;;;;1.05;0.75;;;;;;;6.86;63.23;98488.66;5049769;28;20045;-79
2022/01/09 01:09:04;;;;;;;0.65;0.40;;;;;;;6.86;63.40;98475.75;5047701;28;20525;-79
2022/01/09 01:11:30;;;;;;;0.20;0.20;;;;;;;6.85;63.95;98482.66;5050056;28;20401;-79
2022/01/09 01:13:56;;;;;;;0.38;0.30;;;;;;;7.10;62.60;98474.72;5047090;28;20095;-79
2022/01/09 01:16:21;;;;;;;0.28;0.28;;;;;;;6.98;62.83;98481.25;5042777;28;20100;-79
2022/01/09 01:18:47;;;;;;;0.47;0.22;;;;;;;7.11;62.93;98479.78;5046709;28;20041;-79
2022/01/09 01:21:13;;;;;;;0.20;0.20;;;;;;;7.08;63.31;98484.25;5049141;28;20040;-79
2022/01/09 01:23:40;;;;;;;0.20;0.20;;;;;;;7.03;63.28;98478.44;5045531;28;20043;-79
2022/01/09 01:26:05;;;;;;;0.20;0.20;;;;;;;7.03;63.90;98486.19;5031904;28;20120;-79
2022/01/09 01:28:31;;;;;;;0.20;0.20;;;;;;;7.05;64.24;98477.47;5045089;28;20152;-79
2022/01/09 01:30:57;;;;;;;1.17;0.15;;;;;;;7.14;63.30;98483.97;5048105;28;20391;-79
2022/01/09 01:33:23;;;;;;;0.28;0.28;;;;;;;7.03;64.83;98489.63;5049208;28;20120;-79
2022/01/09 01:35:50;;;;;;;1.13;0.30;;;;;;;7.12;64.98;98490.97;5053857;28;20064;-78
2022/01/09 01:38:16;;;;;;;0.30;0.30;;;;;;;6.88;65.32;98499.75;5051824;28;20031;-79
2022/01/09 01:40:41;;;;;;;0.30;0.30;;;;;;;6.99;65.44;98510.44;5059455;28;20423;-79
2022/01/09 01:43:07;;;;;;;0.52;0.38;;;;;;;7.20;65.11;98503.56;5046299;28;20044;-79
2022/01/09 01:45:33;;;;;;;0.50;0.30;;;;;;;6.94;65.63;98505.50;5045881;28;20073;-79
2022/01/09 01:48:06;;;;;;;0.50;0.20;;;;;;;7.17;64.75;98501.91;5042669;28;20071;-79
2022/01/09 01:50:37;;;;;;;0.30;0.20;;;;;;;7.04;65.27;98509.38;5045100;28;20025;-79
2022/01/09 01:53:09;;;;;;;0.77;0.30;;;;;;;7.16;65.22;98514.91;5050409;28;20063;-79
2022/01/09 01:55:37;;;;;;;0.20;0.20;;;;;;;7.06;65.44;98512.72;5049646;28;20446;-79
2022/01/09 01:58:04;;;;;;;0.65;0.20;;;;;;;6.92;64.84;98514.22;5041224;28;20060;-79
2022/01/09 02:00:30;;;;;;;0.17;0.17;;;;;;;7.03;64.85;98527.50;5032447;28;20044;-79
2022/01/09 02:02:56;;;;;;;0.10;0.10;;;;;;;6.75;66.38;98522.63;5055097;28;20068;-79
2022/01/09 02:05:22;;;;;;;0.20;0.20;;;;;;;6.61;67.17;98549.91;5040930;28;20107;-79
2022/01/09 02:07:50;;;;;;;0.20;0.20;;;;;;;6.67;68.50;98534.16;5047802;28;20033;-79
2022/01/09 02:10:17;;;;;;;0.20;0.20;;;;;;;6.53;68.78;98538.16;5044533;28;20037;-78
2022/01/09 02:12:42;;;;;;;0.30;0.20;;;;;;;6.68;70.35;98534.13;5035018;28;20024;-79
2022/01/09 02:15:47;;;;;;;0.30;0.30;;;;;;;6.88;69.15;98534.13;5029106;28;20579;-79
2022/01/09 02:18:16;;;;;;;0.32;0.25;;;;;;;6.50;70.11;98533.13;5048236;28;20552;-78
2022/01/09 02:20:42;;;;;;;3.20;0.28;;;;;;;6.77;69.64;98544.06;5043179;28;20500;-78
2022/01/09 02:23:09;;;;;;;0.20;0.20;;;;;;;6.33;70.57;98571.59;5027257;28;20041;-79
2022/01/09 02:25:37;;;;;;;0.38;0.20;;;;;;;5.84;73.43;98570.03;5045090;28;20037;-78
2022/01/09 02:28:05;;;;;;;0.98;0.30;;;;;;;6.11;73.26;98583.63;5031931;28;20184;-78
2022/01/09 02:30:32;;;;;;;2.13;0.40;;;;;;;6.28;74.03;98582.97;5044722;28;20526;-79
2022/01/09 02:33:03;;;;;;;0.95;0.30;;;;;;;5.69;73.86;98591.19;5037214;28;20106;-79
2022/01/09 02:35:29;;;;;;;0.63;0.40;;;;;;;5.86;73.68;98598.31;5048957;28;20044;-78
2022/01/09 02:37:55;;;;;;;1.17;0.35;;;;;;;5.79;72.62;98623.47;5043536;28;20024;-79
2022/01/09 02:40:22;;;;;;;1.55;0.30;;;;;;;6.04;74.33;98624.25;5048829;28;20501;-79
2022/01/09 02:42:48;;;;;;;1.17;0.38;;;;;;;5.60;74.49;98631.88;5048560;28;20087;-79
2022/01/09 02:45:15;;;;;;;2.83;0.40;;;;;;;5.70;75.27;98633.25;5046609;28;20033;-78
2022/01/09 02:47:42;;;;;;;0.25;0.22;;;;;;;5.60;74.81;98655.91;5032203;28;20040;-78
2022/01/09 02:50:27;;;;;;;0.70;0.38;;;;;;;5.72;72.89;98714.72;5045757;28;20506;-79
2022/01/09 02:52:57;;;;;;;0.82;0.35;;;;;;;5.56;74.59;98700.69;5043027;28;20037;-78
2022/01/09 02:55:24;;;;;;;2.10;0.40;;;;;;;5.37;75.00;98710.75;5031108;28;20048;-79
2022/01/09 02:57:56;;;;;;;2.58;0.50;;;;;;;5.02;76.62;98733.34;5037890;28;20678;-78
2022/01/09 03:00:23;;;;;;;1.70;0.40;;;;;;;5.15;76.15;98714.06;5043078;28;20153;-78
2022/01/09 03:02:49;;;;;;;1.83;0.60;;;;;;;5.22;77.61;98712.97;5032136;28;20127;-79
2022/01/09 03:05:15;;;;;;;1.58;0.75;;;;;;;5.56;77.17;98716.16;5037859;28;20432;-79
2022/01/09 03:07:42;;;;;;;0.70;0.40;;;;;;;5.65;76.26;98720.16;5040411;28;20034;-79
2022/01/09 03:10:09;;;;;;;4.13;0.80;;;;;;;5.50;75.27;98730.94;5044200;28;20037;-79
2022/01/09 03:12:34;;;;;;;2.10;0.50;;;;;;;5.67;75.48;98741.53;5047416;28;20120;-79
2022/01/09 03:15:00;;;;;;;0.60;0.35;;;;;;;5.69;78.19;98740.59;5044588;28;20640;-78
2022/01/09 03:17:26;;;;;;;0.60;0.38;;;;;;;5.57;76.80;98807.94;5041145;28;20032;-78
2022/01/09 03:19:52;;;;;;;1.65;0.73;;;;;;;5.26;79.72;98786.66;5043909;28;20025;-78
2022/01/09 03:22:17;;;;;;;2.75;0.77;;;;;;;5.61;77.41;98795.81;5048314;28;20040;-78
2022/01/09 03:24:43;;;;;;;3.33;0.70;;;;;;;5.55;77.31;98773.69;5046197;28;20116;-78
2022/01/09 03:27:10;;;;;;;2.38;0.60;;;;;;;5.80;76.68;98787.44;5042214;28;20559;-78
2022/01/09 03:29:36;;;;;;;3.08;0.80;;;;;;;5.92;76.52;98806.81;5040316;28;20040;-78
2022/01/09 03:32:01;;;;;;;4.57;0.90;;;;;;;5.58;76.69;98801.91;5047615;28;20390;-78
2022/01/09 03:34:27;;;;;;;3.10;0.90;;;;;;;5.74;76.18;98800.50;5045571;28;20047;-78
2022/01/09 03:36:53;;;;;;;4.38;0.90;;;;;;;5.56;78.06;98818.31;5030872;28;20036;-78
2022/01/09 03:39:18;;;;;;;3.65;0.70;;;;;;;5.88;75.96;98805.22;5031565;28;20191;-78
2022/01/09 03:41:44;;;;;;;2.17;0.50;;;;;;;5.49;77.19;98820.22;5046701;28;20558;-78
2022/01/09 03:44:09;;;;;;;1.55;0.57;;;;;;;5.69;75.84;98822.16;5048067;28;20378;-78
2022/01/09 03:46:35;;;;;;;4.40;1.17;;;;;;;5.61;76.67;98832.72;5043618;28;20389;-78
2022/01/09 03:49:00;;;;;;;4.20;1.05;;;;;;;5.47;76.84;98838.28;5027072;28;20033;-78
2022/01/09 03:51:32;;;;;;;3.22;0.85;;;;;;;5.65;76.66;98842.06;5014051;28;20452;-78
2022/01/09 03:53:57;;;;;;;2.90;0.85;;;;;;;5.39;76.35;98857.44;5040720;28;20072;-78
2022/01/09 03:56:23;;;;;;;9.57;1.45;;;;;;;5.36;76.94;98855.81;5027830;28;20060;-78
2022/01/09 03:58:48;;;;;;;9.20;1.70;;;;;;;5.28;76.59;98865.50;5044193;28;20028;-78
2022/01/09 04:01:14;;;;;;;4.60;1.20;;;;;;;5.50;77.38;98857.13;5044535;28;20128;-78
2022/01/09 04:03:39;;;;;;;5.97;1.65;;;;;;;5.83;77.31;98858.66;5040797;28;20041;-78
2022/01/09 04:06:05;;;;;;;3.22;1.20;;;;;;;5.93;76.23;98854.88;5032134;28;20082;-78
2022/01/09 04:08:31;;;;;;;6.68;1.55;;;;;;;6.13;75.23;98870.50;5042821;28;20045;-78
2022/01/09 04:10:57;;;;;;;6.20;1.30;;;;;;;5.74;75.25;98888.09;5045267;28;20443;-78
2022/01/09 04:13:22;;;;;;;5.88;1.33;;;;;;;5.53;77.90;98891.38;5041952;28;20120;-78
2022/01/09 04:15:49;;;;;;;5.65;1.30;;;;;;;5.74;77.34;98893.25;5044812;28;20063;-78
2022/01/09 04:18:19;;;;;;;3.15;1.17;;;;;;;5.78;76.75;98892.28;5041869;28;20485;-78
2022/01/09 04:20:46;;;;;;;9.60;1.70;;;;;;;5.97;76.99;98902.84;5040941;28;20557;-78
2022/01/09 04:23:12;;;;;;;9.30;1.27;;;;;;;6.01;76.71;98909.56;5042370;28;20111;-78
2022/01/09 04:25:39;;;;;;;4.70;1.15;;;;;;;6.11;75.86;98918.72;5045821;28;20128;-78
2022/01/09 04:28:04;;;;;;;5.55;1.23;;;;;;;5.83;76.39;98916.16;5043689;28;20044;-79
2022/01/09 04:30:30;;;;;;;4.90;1.52;;;;;;;6.01;76.31;98922.47;5047258;28;20033;-78
2022/01/09 04:32:55;;;;;;;6.05;1.27;;;;;;;5.98;77.31;98919.97;5044033;28;20391;-78
2022/01/09 04:35:21;;;;;;;16.02;2.58;;;;;;;5.70;77.08;98934.63;5043789;28;20102;-78
2022/01/09 04:37:48;;;;;;;6.25;2.05;;;;;;;6.04;76.97;98936.09;5025473;28;20082;-78
2022/01/09 04:40:15;;;;;;;9.15;1.90;;;;;;;5.71;77.97;98952.59;5030977;28;20082;-78
2022/01/09 04:43:01;;;;;;;13.40;1.88;;;;;;;5.82;77.59;98953.13;5040867;28;20049;-78
2022/01/09 04:45:28;;;;;;;10.77;3.53;;;;;;;5.66;78.98;98964.78;5044232;28;20094;-79
2022/01/09 04:47:59;;;;;;;11.18;2.85;;;;;;;5.88;78.14;98976.13;5040277;28;20401;-78
2022/01/09 04:50:26;;;;;;;10.13;1.83;;;;;;;6.14;76.03;98977.06;5039122;28;20030;-78
2022/01/09 04:52:57;;;;;;;11.20;2.67;;;;;;;6.03;76.83;98990.28;5031175;28;20025;-78
2022/01/09 04:55:23;;;;;;;14.48;1.80;;;;;;;5.79;77.46;98999.59;5026514;28;20044;-79
2022/01/09 04:57:49;;;;;;;14.77;2.13;;;;;;;5.76;76.16;99001.44;5032439;28;20048;-78
2022/01/09 05:00:14;;;;;;;9.48;2.42;;;;;;;6.05;77.40;99016.84;5036874;28;20029;-78
2022/01/09 05:02:39;;;;;;;14.82;2.55;;;;;;;6.14;76.56;99034.63;5032606;28;20041;-78
2022/01/09 05:05:08;;;;;;;15.77;3.85;;;;;;;6.09;74.23;99027.91;5037599;28;20087;-78
2022/01/09 05:07:34;;;;;;;10.32;1.85;;;;;;;6.20;75.95;99041.31;5041986;28;20443;-78
2022/01/09 05:09:59;;;;;;;9.07;2.03;;;;;;;6.16;76.35;99045.72;5045770;28;20048;-78
2022/01/09 05:12:24;;;;;;;8.90;1.70;;;;;;;6.09;75.92;99059.69;5041867;28;20098;-78
2022/01/09 05:14:50;;;;;;;9.57;2.00;;;;;;;6.18;74.05;99066.31;5041877;28;20040;-78
2022/01/09 05:17:15;;;;;;;12.90;2.28;;;;;;;5.87;76.31;99074.09;5042733;28;20033;-78
2022/01/09 05:19:41;;;;;;;12.35;1.73;;;;;;;5.82;75.43;99075.97;5044534;28;20086;-78
2022/01/09 05:22:08;;;;;;;11.80;2.30;;;;;;;5.92;75.99;99088.53;5042827;28;20052;-78
2022/01/09 05:24:35;;;;;;;8.88;2.58;;;;;;;5.80;76.89;99104.34;5037748;28;20132;-78
2022/01/09 05:27:01;;;;;;;12.45;2.38;;;;;;;6.21;75.72;99103.16;5040202;28;20065;-78
2022/01/09 05:29:26;;;;;;;8.50;1.83;;;;;;;5.66;75.19;99109.03;5021630;28;20061;-78
2022/01/09 05:31:51;;;;;;;12.02;1.88;;;;;;;5.71;75.11;99112.31;5041694;28;20079;-78
2022/01/09 05:34:17;;;;;;;5.78;1.73;;;;;;;5.92;75.14;99123.78;5050725;28;20037;-78
2022/01/09 05:36:43;;;;;;;11.95;2.80;;;;;;;6.05;74.58;99125.09;5051994;28;20066;-78
2022/01/09 05:39:09;;;;;;;9.23;2.08;;;;;;;6.10;73.63;99125.00;5048440;28;20041;-78
2022/01/09 05:41:35;;;;;;;10.27;2.33;;;;;;;6.11;74.18;99130.09;5050695;28;20024;-78
2022/01/09 05:44:01;;;;;;;5.97;1.40;;;;;;;5.85;74.48;99145.44;5043264;28;20041;-78
2022/01/09 05:46:26;;;;;;;9.18;1.80;;;;;;;5.92;73.43;99149.56;5043738;28;20045;-78
2022/01/09 05:48:52;;;;;;;11.50;1.42;;;;;;;6.00;72.80;99155.34;5045396;28;20120;-78
2022/01/09 05:51:17;;;;;;;7.00;1.88;;;;;;;5.89;71.92;99159.94;5044107;28;20033;-78
2022/01/09 05:53:43;;;;;;;12.15;1.90;;;;;;;5.83;73.26;99178.16;5033108;28;20047;-78
2022/01/09 05:56:08;;;;;;;8.90;2.15;;;;;;;5.99;72.84;99169.94;5045464;28;21338;-78
2022/01/09 05:58:35;;;;;;;9.73;1.52;;;;;;;5.84;73.33;99188.41;5045760;28;20044;-78
2022/01/09 06:01:02;;;;;;;12.48;1.90;;;;;;;6.09;72.10;99187.75;5043657;28;20045;-78
2022/01/09 06:03:28;;;;;;;8.73;1.52;;;;;;;5.93;74.43;99200.19;5046298;28;20410;-77
2022/01/09 06:05:53;;;;;;;11.52;2.42;;;;;;;6.32;72.55;99198.25;5023984;28;20033;-78
2022/01/09 06:08:18;;;;;;;12.90;2.78;;;;;;;6.22;73.00;99201.97;5028451;28;20029;-78
2022/01/09 06:10:44;;;;;;;10.93;1.83;;;;;;;5.72;74.78;99217.06;5017541;28;20017;-78
2022/01/09 06:13:09;;;;;;;8.63;1.75;;;;;;;6.06;73.31;99219.59;5041927;28;20068;-78
2022/01/09 06:15:35;;;;;;;9.75;2.30;;;;;;;6.14;71.36;99217.66;5029893;28;20056;-78
2022/01/09 06:18:00;;;;;;;11.20;1.95;;;;;;;5.88;73.70;99233.84;5030614;28;20096;-78
2022/01/09 06:20:26;;;;;;;12.45;1.80;;;;;;;6.20;71.66;99232.09;5045972;28;20032;-78
2022/01/09 06:22:51;;;;;;;7.68;1.83;;;;;;;6.25;72.18;99236.25;5036466;28;20044;-77
2022/01/09 06:25:17;;;;;;;6.22;2.00;;;;;;;6.18;70.46;99246.78;5046019;28;20037;-77
2022/01/09 06:27:42;;;;;;;13.00;2.22;;;;;;;6.19;71.81;99249.31;5047238;28;20034;-78
2022/01/09 06:30:09;;;;;;;11.88;2.28;;;;;;;5.97;71.22;99251.63;5044829;28;20037;-77
2022/01/09 06:32:35;;;;;;;9.85;2.00;;;;;;;6.03;71.32;99255.78;5052744;28;20390;-77
2022/01/09 06:35:00;;;;;;;9.05;1.70;;;;;;;6.25;71.41;99263.75;5046254;28;20033;-78
2022/01/09 06:37:26;;;;;;;10.40;2.28;;;;;;;6.11;71.99;99273.59;5048931;28;20111;-77
2022/01/09 06:39:51;;;;;;;5.35;1.50;;;;;;;6.22;71.27;99282.75;5044396;28;20539;-78
2022/01/09 06:42:17;;;;;;;11.57;1.98;;;;;;;6.39;70.75;99269.41;5040781;28;20124;-77
2022/01/09 06:44:42;;;;;;;8.23;1.67;;;;;;;6.42;70.71;99285.66;5032765;28;20044;-77
2022/01/09 06:47:07;;;;;;;12.48;2.08;;;;;;;6.34;71.08;99277.25;5032396;28;20037;-77
2022/01/09 06:49:34;;;;;;;11.45;1.95;;;;;;;6.01;71.96;99288.47;5031933;28;20576;-77
2022/01/09 06:52:00;;;;;;;7.32;1.58;;;;;;;6.22;71.01;99295.63;5027878;28;20045;-78
2022/01/09 06:54:26;;;;;;;9.50;1.90;;;;;;;5.97;70.19;99292.88;5038227;28;20037;-77
2022/01/09 06:56:51;;;;;;;9.20;1.73;;;;;;;6.28;71.52;99310.09;5028252;28;20048;-77
2022/01/09 06:59:16;;;;;;;5.68;1.48;;;;;;;6.39;71.18;99306.34;5038040;28;20056;-77
2022/01/09 07:01:42;;;;;;;10.00;1.67;;;;;;;6.23;70.33;99309.38;5045288;28;20044;-77
2022/01/09 07:04:07;;;;;;;12.93;1.92;;;;;;;6.24;70.25;99318.81;5037305;28;20040;-77
2022/01/09 07:06:35;;;;;;;9.20;1.85;;;;;;;6.30;68.55;99316.06;5044681;28;20029;-78
2022/01/09 07:09:01;;;;;;;6.43;1.75;;;;;;;6.00;69.60;99325.44;5037801;28;20041;-78
2022/01/09 07:11:26;;;;;;;7.18;1.85;;;;;;;6.20;69.94;99324.94;5044984;28;20029;-78
2022/01/09 07:13:51;;;;;;;8.90;1.70;;;;;;;6.40;70.09;99330.41;5041932;28;20156;-77
2022/01/09 07:16:17;;;;;;;7.03;1.85;;;;;;;6.28;70.30;99331.56;5047299;28;20037;-78
2022/01/09 07:18:42;;;;;;;7.15;1.30;;;;;;;6.23;68.75;99342.91;5042707;28;20037;-78
2022/01/09 07:21:08;;;;;;;5.30;1.95;;;;;;;6.26;68.61;99340.22;5034266;28;20554;-77
2022/01/09 07:23:33;;;;;;;10.45;2.03;;;;;;;6.19;69.75;99349.84;5046438;28;20028;-78
2022/01/09 07:25:59;;;;;;;9.57;1.98;;;;;;;6.22;68.81;99361.81;5021742;28;20037;-78
2022/01/09 07:28:25;;;;;;;5.95;1.60;;;;;;;6.03;69.19;99367.47;5047727;28;20037;-78
2022/01/09 07:30:50;;;;;;;7.53;1.88;;;;;;;6.22;68.37;99369.56;5040415;28;20910;-78
2022/01/09 07:33:16;;;;;;;9.90;2.30;;;;;;;6.28;68.47;99382.28;5043720;28;20086;-78
2022/01/09 07:35:41;;;;;;;5.55;1.63;;;;;;;6.39;68.03;99380.31;5040421;28;20890;-78
2022/01/09 07:38:07;;;;;;;8.30;2.03;;;;;;;6.21;70.81;99391.09;5046092;28;20496;-78
2022/01/09 07:40:32;;;;;;;5.97;1.75;;;;;;;6.31;69.52;99395.09;5056319;28;20033;-78
2022/01/09 07:42:58;;;;;;;8.82;1.95;;;;;;;6.19;68.45;99403.19;5043980;28;20096;-78
2022/01/09 07:45:26;;;;;;;6.75;1.70;;;;;;;6.25;69.04;99415.88;5047484;28;20037;-77
2022/01/09 07:47:58;;;;;;;5.32;1.85;;;;;;;6.13;68.14;99413.66;5025136;28;20096;-78
2022/01/09 07:50:24;;;;;;;8.38;1.90;;;;;;;6.35;68.11;99412.22;5043536;28;20029;-78
2022/01/09 07:52:50;;;;;;;7.63;1.40;;;;;;;6.37;67.32;99428.47;5044980;28;20344;-78
2022/01/09 07:55:19;;;;;;;4.70;1.77;;;;;;;6.34;68.77;99426.81;5024602;28;20029;-78
2022/01/09 07:57:45;;;;;;;8.77;1.80;;;;;;;6.30;67.59;99434.69;5038129;28;20489;-77
2022/01/09 08:00:12;;;;;;;8.40;1.60;;;;;;;6.16;66.47;99432.44;5043231;28;20572;-78
2022/01/09 08:02:38;;;;;;;3.53;1.90;;;;;;;6.12;68.26;99450.59;5043486;28;20099;-77
2022/01/09 08:05:04;;;;;;;4.47;1.55;;;;;;;6.21;68.11;99447.81;5045660;28;20033;-78
2022/01/09 08:07:30;;;;;;;1.90;1.38;;;;;;;6.17;68.42;99451.34;5028271;28;20036;-77
2022/01/09 08:09:55;;;;;;;6.55;1.70;;;;;;;6.08;68.71;99467.88;5038094;28;20041;-77
2022/01/09 08:12:20;;;;;;;8.63;1.90;;;;;;;6.23;68.63;99467.50;5050877;28;20040;-77
2022/01/09 08:14:46;;;;;;;5.03;1.67;;;;;;;6.34;68.73;99481.00;5029929;28;20033;-77
2022/01/09 08:17:12;;;;;;;7.57;2.33;;;;;;;6.26;67.21;99471.75;5044235;28;20029;-77
2022/01/09 08:19:38;;;;;;;4.38;1.80;;;;;;;6.34;66.52;99475.84;5026422;28;20053;-77
2022/01/09 08:22:05;;;;;;;7.60;1.75;;;;;;;6.03;68.58;99488.63;5038903;28;20037;-78
2022/01/09 08:24:31;;;;;;;11.35;1.70;;;;;;;6.21;66.23;99489.91;5039742;28;20052;-78
2022/01/09 08:30:19;;;;;;;4.07;1.40;;;;;;;6.27;67.04;99484.63;5031318;28;20110;-78
2022/01/09 08:32:45;;;;;;;7.35;1.35;;;;;;;6.25;67.72;99494.09;5042101;28;20524;-78
2022/01/09 08:35:11;;;;;;;7.93;2.03;;;;;;;6.28;66.98;99491.44;5022691;28;20038;-77
2022/01/09 08:37:37;;;;;;;4.97;1.40;;;;;;;6.44;67.39;99505.69;5039536;28;20164;-78
2022/01/09 08:40:03;;;;;;;12.68;1.42;;;;;;;6.22;66.65;99514.81;5045851;28;20037;-78
2022/01/09 08:42:29;;;;;;;7.28;1.90;;;;;;;6.18;67.17;99518.34;5021642;28;20037;-78
2022/01/09 08:44:54;;;;;;;3.72;1.65;;;;;;;6.31;67.87;99522.31;5038717;28;20041;-78
2022/01/09 08:47:23;;;;;;;8.70;1.95;;;;;;;6.35;66.38;99523.09;5045505;28;20106;-78
2022/01/09 08:49:49;;;;;;;8.52;1.60;;;;;;;6.43;66.06;99521.19;5048260;28;20033;-77
2022/01/09 08:52:14;;;;;;;6.18;1.40;;;;;;;6.47;66.99;99522.81;5032178;28;20048;-78
2022/01/09 08:54:40;;;;;;;6.72;1.80;;;;;;;6.58;66.82;99533.75;5042384;28;20037;-77
2022/01/09 08:57:06;;;;;;;5.60;1.42;;;;;;;6.22;66.67;99525.13;5042534;28;20276;-77
2022/01/09 08:59:32;;;;;;;4.30;1.48;;;;;;;6.03;67.67;99537.59;5024581;28;20033;-77
2022/01/09 09:01:57;;;;;;;5.85;1.55;;;;;;;6.44;67.21;99539.22;5010800;28;20044;-78
2022/01/09 09:04:23;;;;;;;7.05;1.45;;;;;;;6.45;66.96;99552.97;5039586;28;20042;-79
2022/01/09 09:06:48;;;;;;;3.42;1.35;;;;;;;6.44;66.77;99543.53;5039483;28;20365;-79
2022/01/09 09:09:14;;;;;;;6.70;1.73;;;;;;;6.44;67.58;99543.53;5054173;28;20029;-79
2022/01/09 09:11:40;;;;;;;8.23;2.40;;;;;;;6.48;65.69;99548.59;5037045;28;20493;-79
2022/01/09 09:14:05;;;;;;;4.32;1.10;;;;;;;6.43;66.13;99550.41;5032695;28;20029;-79
2022/01/09 09:16:31;;;;;;;5.93;1.77;;;;;;;6.34;66.55;99554.94;5045408;28;20061;-80
2022/01/09 09:18:57;;;;;;;11.68;1.85;;;;;;;6.41;66.25;99562.50;5046577;28;20098;-79
2022/01/09 09:21:23;;;;;;;4.13;1.48;;;;;;;6.43;65.78;99560.72;5059107;28;20040;-79
2022/01/09 09:23:54;;;;;;;3.05;1.25;;;;;;;6.49;66.49;99567.50;5047231;28;20041;-79
2022/01/09 09:26:21;;;;;;;7.13;1.50;;;;;;;6.67;66.92;99569.66;5013851;28;20058;-79
2022/01/09 09:28:47;;;;;;;7.57;1.88;;;;;;;6.48;65.91;99576.16;5045152;28;20679;-79
2022/01/09 09:31:13;;;;;;;13.82;2.45;;;;;;;6.52;66.10;99573.44;5044216;28;20037;-79
2022/01/09 09:33:39;;;;;;;6.47;1.75;;;;;;;6.56;64.48;99584.56;5024720;28;20483;-79
2022/01/09 09:36:05;;;;;;;7.70;1.67;;;;;;;6.69;65.18;99591.13;5029037;28;20068;-79
2022/01/09 09:38:31;;;;;;;6.43;2.15;;;;;;;6.29;64.05;99603.19;5031475;28;20041;-79
2022/01/09 09:40:57;;;;;;;6.03;1.70;;;;;;;6.55;64.74;99595.75;5024584;28;20493;-79
2022/01/09 09:43:23;;;;;;;10.68;2.65;;;;;;;6.53;64.33;99611.28;5045550;28;20053;-79
2022/01/09 09:45:48;;;;;;;15.52;4.47;;;;;;;6.52;67.48;99621.63;5049244;28;20033;-79
2022/01/09 09:48:14;;;;;;;7.50;2.15;;;;;;;6.56;64.91;99615.50;5047351;28;20033;-79
2022/01/09 09:50:40;;;;;;;8.07;1.90;;;;;;;6.60;65.09;99605.97;5026833;28;20037;-79
2022/01/09 09:53:06;;;;;;;5.35;1.55;;;;;;;6.67;64.89;99617.81;5031687;28;20025;-79
2022/01/09 09:55:32;;;;;;;6.90;2.00;;;;;;;6.57;65.12;99624.97;5049771;28;20055;-79
2022/01/09 09:57:58;;;;;;;8.23;1.70;;;;;;;6.81;65.43;99624.34;5037285;28;20075;-79
2022/01/09 10:00:24;;;;;;;4.35;1.58;;;;;;;6.42;66.10;99638.16;5038827;28;20068;-79
2022/01/09 10:02:52;;;;;;;7.10;1.38;;;;;;;6.72;63.65;99634.94;5045156;28;20036;-79
2022/01/09 10:05:24;;;;;;;10.13;1.70;;;;;;;6.70;66.65;99646.16;5045233;28;20040;-79
2022/01/09 10:07:54;;;;;;;8.75;1.90;;;;;;;6.67;65.69;99644.50;5043436;28;20048;-80
2022/01/09 10:10:28;;;;;;;9.98;1.48;;;;;;;6.91;65.06;99646.50;5043954;28;20499;-79
2022/01/09 10:13:08;;;;;;;8.82;1.55;;;;;;;6.80;63.78;99652.81;5038251;28;20075;-79
2022/01/09 10:15:47;;;;;;;4.03;1.30;;;;;;;6.57;64.96;99664.47;5042360;28;20385;-79
2022/01/09 10:18:13;;;;;;;8.00;1.40;;;;;;;6.54;63.99;99667.13;5044393;28;20040;-79
2022/01/09 10:20:39;;;;;;;5.93;1.30;;;;;;;6.66;64.64;99670.34;5024611;28;20041;-79
2022/01/09 10:23:04;;;;;;;5.60;1.17;;;;;;;6.62;63.29;99679.88;5036047;28;20036;-79
2022/01/09 10:25:32;;;;;;;7.35;1.67;;;;;;;6.72;64.13;99678.81;5060599;28;20037;-79
2022/01/09 10:28:09;;;;;;;5.30;1.70;;;;;;;6.72;63.75;99683.97;5034874;28;20053;-79
2022/01/09 10:30:39;;;;;;;5.75;1.38;;;;;;;6.72;62.39;99681.38;5027670;28;20060;-79
2022/01/09 10:33:12;;;;;;;7.32;1.25;;;;;;;6.74;62.63;99687.34;5039771;28;20038;-79
2022/01/09 10:35:40;;;;;;;6.03;1.42;;;;;;;6.58;64.10;99696.28;5040834;28;20057;-81
2022/01/09 10:38:17;;;;;;;6.10;1.60;;;;;;;6.59;65.12;99695.44;5042758;28;20029;-80
2022/01/09 10:40:46;;;;;;;4.90;1.30;;;;;;;6.74;63.83;99699.41;5042329;28;20045;-80
2022/01/09 10:43:16;;;;;;;5.82;1.27;;;;;;;6.78;64.37;99694.13;5034020;28;20037;-80
2022/01/09 10:45:59;;;;;;;7.80;1.85;;;;;;;6.77;63.77;99701.91;5027204;28;20502;-80
2022/01/09 10:48:36;;;;;;;3.92;1.58;;;;;;;6.92;63.27;99689.50;5020924;28;20545;-80
2022/01/09 10:51:07;;;;;;;4.60;1.60;;;;;;;6.85;63.20;99695.69;5029697;28;20033;-80
2022/01/09 10:53:37;;;;;;;3.90;1.27;;;;;;;6.84;62.77;99696.56;5025856;28;20040;-80
2022/01/09 10:56:20;;;;;;;5.32;1.55;;;;;;;6.86;63.03;99705.13;5047120;28;20024;-80
2022/01/09 10:58:45;;;;;;;4.53;1.38;;;;;;;6.91;63.89;99702.44;5042645;28;20037;-80
2022/01/09 11:01:18;;;;;;;5.55;1.38;;;;;;;6.85;63.17;99711.19;5045834;28;20120;-80
2022/01/09 11:03:49;;;;;;;7.88;2.13;;;;;;;6.85;64.51;99721.50;5044078;28;20044;-80
2022/01/09 11:06:15;;;;;;;6.90;1.38;;;;;;;6.80;64.01;99714.75;5044160;28;20041;-80
2022/01/09 11:08:41;;;;;;;3.50;1.40;;;;;;;6.93;64.78;99719.59;5036570;28;20107;-79
2022/01/09 11:11:19;;;;;;;2.63;1.38;;;;;;;6.61;67.55;99719.47;5046727;28;20060;-79
2022/01/09 11:13:47;;;;;;;3.72;1.50;;;;;;;6.81;64.32;99717.28;5042565;28;20029;-79
2022/01/09 11:16:34;;;;;;;4.00;1.30;;;;;;;6.94;65.37;99720.44;5046572;28;20425;-79
2022/01/09 11:19:05;;;;;;;6.40;1.70;;;;;;;6.99;63.02;99711.69;5043515;28;20073;-78
2022/01/09 11:21:31;;;;;;;4.40;1.20;;;;;;;6.96;65.08;99718.69;5042147;28;20785;-78
2022/01/09 11:23:57;;;;;;;3.63;1.45;;;;;;;6.86;66.26;99725.78;5034597;28;20132;-80
2022/01/09 11:26:39;;;;;;;3.97;1.50;;;;;;;6.97;64.11;99728.13;5053618;28;20469;-80
2022/01/09 11:29:09;;;;;;;4.97;1.45;;;;;;;6.89;64.55;99732.63;5045726;28;20056;-79
2022/01/09 11:31:55;;;;;;;6.22;1.85;;;;;;;6.96;64.26;99723.84;5047058;28;20390;-79
2022/01/09 11:34:45;;;;;;;7.60;1.33;;;;;;;6.62;63.47;99735.78;5051058;28;20032;-79
2022/01/09 11:37:48;;;;;;;7.47;1.58;;;;;;;6.84;65.51;99724.94;5046695;28;20387;-78
2022/01/09 11:40:31;;;;;;;5.90;2.00;;;;;;;7.03;63.87;99731.41;5039938;28;20546;-78
2022/01/09 11:43:13;;;;;;;6.78;2.85;;;;;;;6.97;62.85;99728.13;5052138;28;20096;-78
2022/01/09 11:46:01;;;;;;;5.20;2.03;;;;;;;6.91;63.45;99730.84;5045530;28;20494;-78